createdAt,value
2019-05-26T00:00:09.472Z,97216.45
2019-05-26T00:02:38.833Z,97215.48
2019-05-26T00:05:08.748Z,97214.09
2019-05-26T00:07:38.264Z,97214.53
2019-05-26T00:10:08.526Z,97209.77
2019-05-26T00:12:38.113Z,97215.91
2019-05-26T00:15:08.602Z,97204.06
2019-05-26T00:17:38.007Z,97198.80
2019-05-26T00:20:08.734Z,97200.58
2019-05-26T00:22:38.180Z,97204.98
2019-05-26T00:25:08.015Z,97202.60
2019-05-26T00:27:37.457Z,97206.97
2019-05-26T00:30:07.064Z,97208.08
2019-05-26T00:32:36.460Z,97207.31
2019-05-26T00:35:06.274Z,97205.31
2019-05-26T00:37:48.428Z,97199.83
2019-05-26T00:40:07.116Z,97195.55
2019-05-26T00:42:36.594Z,97185.75
2019-05-26T00:45:06.077Z,97179.98
2019-05-26T00:47:35.529Z,97190.05
2019-05-26T00:50:05.730Z,97184.88
2019-05-26T00:52:35.270Z,97185.01
2019-05-26T00:55:04.878Z,97183.06
2019-05-26T00:57:34.299Z,97178.88
2019-05-26T01:00:03.835Z,97174.06
2019-05-26T01:02:33.288Z,97175.64
2019-05-26T01:05:02.694Z,97171.59
2019-05-26T01:07:32.101Z,97174.66
2019-05-26T01:10:01.540Z,97168.88
2019-05-26T01:12:31.017Z,97167.30
2019-05-26T01:15:00.415Z,97163.48
2019-05-26T01:17:30.117Z,97171.94
2019-05-26T01:19:59.521Z,97170.73
2019-05-26T01:22:28.991Z,97160.06
2019-05-26T01:24:58.358Z,97171.52
2019-05-26T01:27:27.740Z,97168.03
2019-05-26T01:29:57.152Z,97163.13
2019-05-26T01:34:56.083Z,97178.78
2019-05-26T01:37:25.679Z,97175.70
2019-05-26T01:39:55.157Z,97167.16
2019-05-26T01:42:24.679Z,97164.60
2019-05-26T01:44:54.122Z,97161.66
2019-05-26T01:47:23.605Z,97167.44
2019-05-26T01:49:53.093Z,97169.62
2019-05-26T01:52:22.549Z,97172.27
2019-05-26T01:54:51.999Z,97173.13
2019-05-26T01:57:21.570Z,97176.22
2019-05-26T01:59:51.011Z,97178.59
2019-05-26T02:02:20.533Z,97178.81
2019-05-26T02:04:50.038Z,97175.02
2019-05-26T02:07:19.480Z,97172.34
2019-05-26T02:09:48.976Z,97175.52
2019-05-26T02:12:18.513Z,97172.34
2019-05-26T02:14:47.916Z,97178.08
2019-05-26T02:17:17.386Z,97174.78
2019-05-26T02:19:46.836Z,97173.11
2019-05-26T02:22:16.383Z,97172.06
2019-05-26T02:24:45.855Z,97166.94
2019-05-26T02:27:15.266Z,97169.04
2019-05-26T02:29:44.718Z,97179.03
2019-05-26T02:32:14.158Z,97178.55
2019-05-26T02:34:43.610Z,97172.72
2019-05-26T02:37:13.090Z,97174.84
2019-05-26T02:39:42.633Z,97178.97
2019-05-26T02:42:12.181Z,97180.75
2019-05-26T02:44:41.650Z,97181.23
2019-05-26T02:47:11.169Z,97180.54
2019-05-26T02:49:40.673Z,97180.63
2019-05-26T02:52:10.209Z,97182.30
2019-05-26T02:54:39.642Z,97176.47
2019-05-26T02:57:09.121Z,97173.87
2019-05-26T02:59:38.648Z,97175.30
2019-05-26T03:02:08.202Z,97167.94
2019-05-26T03:04:37.676Z,97167.35
2019-05-26T03:07:07.231Z,97170.59
2019-05-26T03:09:41.792Z,97162.27
2019-05-26T03:12:11.317Z,97172.30
2019-05-26T03:14:43.116Z,97172.16
2019-05-26T03:17:12.560Z,97173.05
2019-05-26T03:19:42.034Z,97166.67
2019-05-26T03:22:13.036Z,97166.39
2019-05-26T03:24:44.063Z,97164.68
2019-05-26T03:27:13.520Z,97169.77
2019-05-26T03:29:43.047Z,97172.81
2019-05-26T03:32:12.520Z,97174.03
2019-05-26T03:34:41.961Z,97174.70
2019-05-26T03:37:11.457Z,97176.45
2019-05-26T03:39:45.503Z,97178.33
2019-05-26T03:42:12.156Z,97184.95
2019-05-26T03:44:41.701Z,97188.73
2019-05-26T03:47:15.704Z,97187.19
2019-05-26T03:49:42.404Z,97202.63
2019-05-26T03:52:11.962Z,97191.50
2019-05-26T03:54:41.422Z,97193.28
2019-05-26T03:57:10.857Z,97199.95
2019-05-26T03:59:40.294Z,97198.97
2019-05-26T04:02:09.772Z,97200.66
2019-05-26T04:04:39.261Z,97200.91
2019-05-26T04:07:08.776Z,97205.48
2019-05-26T04:09:38.317Z,97209.50
2019-05-26T04:12:07.825Z,97206.81
2019-05-26T04:14:37.376Z,97207.54
2019-05-26T04:17:06.904Z,97219.17
2019-05-26T04:19:36.429Z,97223.22
2019-05-26T04:22:05.953Z,97210.82
2019-05-26T04:24:35.525Z,97212.94
2019-05-26T04:27:05.035Z,97215.77
2019-05-26T04:29:34.566Z,97218.48
2019-05-26T04:32:04.410Z,97222.29
2019-05-26T04:34:33.877Z,97212.49
2019-05-26T04:37:03.417Z,97212.88
2019-05-26T04:39:32.904Z,97208.66
2019-05-26T04:42:02.381Z,97214.30
2019-05-26T04:44:31.913Z,97213.18
2019-05-26T04:47:01.394Z,97217.69
2019-05-26T04:49:30.823Z,97216.06
2019-05-26T04:52:00.579Z,97212.55
2019-05-26T04:54:30.124Z,97222.39
2019-05-26T04:56:59.565Z,97219.45
2019-05-26T04:59:29.104Z,97223.96
2019-05-26T05:01:58.550Z,97228.36
2019-05-26T05:04:28.105Z,97224.45
2019-05-26T05:06:57.668Z,97224.75
2019-05-26T05:09:27.157Z,97213.27
2019-05-26T05:11:56.647Z,97217.15
2019-05-26T05:14:26.178Z,97224.74
2019-05-26T05:16:55.695Z,97232.14
2019-05-26T05:19:25.188Z,97229.34
2019-05-26T05:21:54.715Z,97229.39
2019-05-26T05:24:24.163Z,97228.84
2019-05-26T05:26:53.662Z,97222.00
2019-05-26T05:29:23.210Z,97225.77
2019-05-26T05:31:52.753Z,97228.55
2019-05-26T05:34:22.217Z,97232.88
2019-05-26T05:36:51.683Z,97233.89
2019-05-26T05:39:21.127Z,97234.46
2019-05-26T05:41:50.579Z,97231.35
2019-05-26T05:44:20.054Z,97237.91
2019-05-26T05:46:49.593Z,97237.33
2019-05-26T05:49:19.053Z,97233.56
2019-05-26T05:51:48.525Z,97231.47
2019-05-26T05:54:17.951Z,97232.16
2019-05-26T05:56:47.413Z,97232.88
2019-05-26T05:59:16.950Z,97232.28
2019-05-26T06:01:46.354Z,97228.25
2019-05-26T06:04:15.833Z,97228.95
2019-05-26T06:06:45.545Z,97230.52
2019-05-26T06:09:15.166Z,97226.77
2019-05-26T06:11:44.564Z,97229.83
2019-05-26T06:14:14.099Z,97237.83
2019-05-26T06:16:43.550Z,97230.86
2019-05-26T06:19:13.069Z,97237.78
2019-05-26T06:21:42.478Z,97228.70
2019-05-26T06:24:11.969Z,97237.62
2019-05-26T06:26:41.424Z,97233.77
2019-05-26T06:29:10.867Z,97237.45
2019-05-26T06:31:40.253Z,97238.03
2019-05-26T06:34:09.735Z,97237.98
2019-05-26T06:36:39.245Z,97239.50
2019-05-26T06:39:09.101Z,97231.34
2019-05-26T06:41:38.551Z,97231.61
2019-05-26T06:44:08.047Z,97239.23
2019-05-26T06:46:37.481Z,97235.39
2019-05-26T06:49:06.931Z,97239.95
2019-05-26T06:51:36.382Z,97246.31
2019-05-26T06:54:05.862Z,97244.83
2019-05-26T06:56:38.347Z,97243.05
2019-05-26T06:59:07.852Z,97238.09
2019-05-26T07:01:37.378Z,97233.87
2019-05-26T07:04:07.011Z,97240.44
2019-05-26T07:06:36.476Z,97237.91
2019-05-26T07:09:07.134Z,97243.25
2019-05-26T07:11:50.504Z,97245.47
2019-05-26T07:14:07.894Z,97250.73
2019-05-26T07:16:38.892Z,97245.01
2019-05-26T07:19:08.479Z,97250.56
2019-05-26T07:21:37.981Z,97253.89
2019-05-26T07:24:07.477Z,97259.23
2019-05-26T07:26:36.913Z,97257.13
2019-05-26T07:29:06.388Z,97256.27
2019-05-26T07:31:35.762Z,97257.34
2019-05-26T07:34:05.297Z,97259.38
2019-05-26T07:36:34.700Z,97258.44
2019-05-26T07:39:06.133Z,97257.63
2019-05-26T07:41:35.673Z,97250.53
2019-05-26T07:44:05.388Z,97253.30
2019-05-26T07:46:37.608Z,97254.11
2019-05-26T07:49:07.063Z,97253.30
2019-05-26T07:51:42.003Z,97242.73
2019-05-26T07:54:24.649Z,97245.91
2019-05-26T07:56:42.950Z,97245.59
2019-05-26T07:59:12.537Z,97242.44
2019-05-26T08:01:42.095Z,97247.57
2019-05-26T08:04:11.709Z,97247.61
2019-05-26T08:06:41.344Z,97246.77
2019-05-26T08:09:10.951Z,97245.46
2019-05-26T08:11:40.613Z,97246.47
2019-05-26T08:14:10.220Z,97247.14
2019-05-26T08:16:39.762Z,97239.86
2019-05-26T08:19:09.447Z,97246.03
2019-05-26T08:21:39.249Z,97249.34
2019-05-26T08:24:08.956Z,97241.05
2019-05-26T08:26:38.788Z,97244.06
2019-05-26T08:29:08.376Z,97245.23
2019-05-26T08:31:38.041Z,97234.98
2019-05-26T08:34:07.750Z,97239.98
2019-05-26T08:36:37.795Z,97238.00
2019-05-26T08:39:08.746Z,97230.19
2019-05-26T08:41:38.801Z,97231.53
2019-05-26T08:44:08.659Z,97230.03
2019-05-26T08:46:38.254Z,97225.71
2019-05-26T08:49:08.103Z,97221.36
2019-05-26T08:51:38.086Z,97221.52
2019-05-26T08:54:07.808Z,97215.36
2019-05-26T08:56:37.676Z,97213.19
2019-05-26T08:59:07.400Z,97213.69
2019-05-26T09:01:37.189Z,97208.17
2019-05-26T09:04:06.857Z,97206.33
2019-05-26T09:06:36.489Z,97208.28
2019-05-26T09:09:08.094Z,97214.70
2019-05-26T09:11:37.937Z,97210.20
2019-05-26T09:14:07.615Z,97206.61
2019-05-26T09:16:37.262Z,97210.16
2019-05-26T09:19:06.963Z,97214.30
2019-05-26T09:21:36.841Z,97210.84
2019-05-26T09:24:06.521Z,97208.14
2019-05-26T09:26:36.288Z,97217.23
2019-05-26T09:29:06.207Z,97213.95
2019-05-26T09:31:35.927Z,97213.48
2019-05-26T09:34:05.638Z,97210.89
2019-05-26T09:36:35.223Z,97209.23
2019-05-26T09:39:07.388Z,97210.81
2019-05-26T09:41:36.995Z,97208.73
2019-05-26T09:44:06.791Z,97199.80
2019-05-26T09:46:36.413Z,97202.13
2019-05-26T09:49:06.038Z,97192.40
2019-05-26T09:51:35.705Z,97195.31
2019-05-26T09:54:05.391Z,97196.16
2019-05-26T09:56:35.013Z,97194.97
2019-05-26T09:59:04.731Z,97196.13
2019-05-26T10:01:34.427Z,97196.13
2019-05-26T10:04:04.043Z,97193.39
2019-05-26T10:06:33.784Z,97186.58
2019-05-26T10:09:04.825Z,97186.31
2019-05-26T10:11:34.364Z,97188.88
2019-05-26T10:14:04.090Z,97188.66
2019-05-26T10:16:33.706Z,97185.84
2019-05-26T10:19:03.332Z,97194.87
2019-05-26T10:21:32.913Z,97181.18
2019-05-26T10:24:02.577Z,97181.18
2019-05-26T10:26:32.150Z,97178.69
2019-05-26T10:29:01.778Z,97177.59
2019-05-26T10:31:31.435Z,97168.94
2019-05-26T10:34:01.231Z,97173.37
2019-05-26T10:36:30.960Z,97170.67
2019-05-26T10:39:00.680Z,97167.57
2019-05-26T10:41:30.284Z,97166.97
2019-05-26T10:43:59.912Z,97162.43
2019-05-26T10:46:29.527Z,97167.14
2019-05-26T10:49:00.801Z,97165.06
2019-05-26T10:51:30.507Z,97158.06
2019-05-26T10:54:00.286Z,97163.41
2019-05-26T10:56:30.214Z,97156.09
2019-05-26T10:59:01.286Z,97157.82
2019-05-26T11:01:30.954Z,97167.14
2019-05-26T11:04:00.696Z,97163.53
2019-05-26T11:06:30.371Z,97167.77
2019-05-26T11:09:00.020Z,97154.75
2019-05-26T11:11:29.586Z,97157.94
2019-05-26T11:14:03.013Z,97148.05
2019-05-26T11:16:30.685Z,97149.00
2019-05-26T11:19:00.312Z,97140.65
2019-05-26T11:21:30.032Z,97148.09
2019-05-26T11:23:59.836Z,97137.14
2019-05-26T11:26:29.453Z,97141.87
2019-05-26T11:28:59.045Z,97127.96
2019-05-26T11:31:28.705Z,97132.18
2019-05-26T11:33:58.316Z,97131.11
2019-05-26T11:36:27.886Z,97136.19
2019-05-26T11:38:57.606Z,97129.62
2019-05-26T11:41:27.139Z,97120.05
2019-05-26T11:43:56.843Z,97112.72
2019-05-26T11:46:26.508Z,97105.70
2019-05-26T11:48:56.129Z,97106.56
2019-05-26T11:51:25.767Z,97101.38
2019-05-26T11:53:55.464Z,97098.99
2019-05-26T11:56:25.040Z,97109.47
2019-05-26T11:58:54.627Z,97105.55
2019-05-26T12:01:24.250Z,97105.67
2019-05-26T12:03:53.820Z,97106.81
2019-05-26T12:06:23.411Z,97106.09
2019-05-26T12:08:52.955Z,97097.94
2019-05-26T12:11:22.598Z,97097.27
2019-05-26T12:13:52.338Z,97100.32
2019-05-26T12:16:21.900Z,97096.23
2019-05-26T12:18:51.521Z,97085.45
2019-05-26T12:21:21.077Z,97086.99
2019-05-26T12:23:54.721Z,97082.52
2019-05-26T12:26:22.056Z,97075.20
2019-05-26T12:28:51.605Z,97076.41
2019-05-26T12:31:21.273Z,97072.49
2019-05-26T12:33:50.940Z,97077.00
2019-05-26T12:36:20.490Z,97075.11
2019-05-26T12:38:52.826Z,97077.84
2019-05-26T12:41:22.752Z,97064.03
2019-05-26T12:43:52.373Z,97064.03
2019-05-26T12:46:21.926Z,97059.59
2019-05-26T12:48:51.598Z,97059.59
2019-05-26T12:51:21.221Z,97056.95
2019-05-26T12:53:50.968Z,97054.78
2019-05-26T12:56:21.139Z,97054.86
2019-05-26T12:58:50.790Z,97060.09
2019-05-26T13:01:20.452Z,97054.80
2019-05-26T13:03:49.990Z,97044.03
2019-05-26T13:06:19.603Z,97039.38
2019-05-26T13:08:49.137Z,97033.20
2019-05-26T13:11:18.750Z,97035.89
2019-05-26T13:13:49.893Z,97030.30
2019-05-26T13:16:19.567Z,97027.48
2019-05-26T13:18:49.292Z,97032.19
2019-05-26T13:21:18.949Z,97017.05
2019-05-26T13:23:48.624Z,97031.59
2019-05-26T13:26:18.277Z,97031.59
2019-05-26T13:28:48.005Z,97029.41
2019-05-26T13:31:17.733Z,97031.80
2019-05-26T13:33:47.369Z,97021.83
2019-05-26T13:36:17.027Z,97018.27
2019-05-26T13:38:46.729Z,97018.27
2019-05-26T13:41:16.505Z,97015.84
2019-05-26T13:43:46.096Z,97012.94
2019-05-26T13:46:15.785Z,97004.27
2019-05-26T13:48:45.394Z,97011.08
2019-05-26T13:51:15.051Z,97011.08
2019-05-26T13:53:44.659Z,97008.63
2019-05-26T13:56:14.301Z,97006.27
2019-05-26T13:58:43.870Z,97018.59
2019-05-26T14:01:13.483Z,97018.59
2019-05-26T14:03:43.057Z,97017.46
2019-05-26T14:06:12.584Z,97014.67
2019-05-26T14:08:42.155Z,97014.67
2019-05-26T14:11:11.730Z,97009.34
2019-05-26T14:13:41.300Z,96999.14
2019-05-26T14:16:10.816Z,97009.21
2019-05-26T14:18:42.020Z,97005.77
2019-05-26T14:21:11.612Z,97018.42
2019-05-26T14:23:41.151Z,97016.59
2019-05-26T14:26:10.677Z,97010.59
2019-05-26T14:28:40.169Z,97010.06
2019-05-26T14:31:09.666Z,97006.78
2019-05-26T14:33:39.188Z,97010.30
2019-05-26T14:36:08.692Z,97006.45
2019-05-26T14:38:43.105Z,97003.52
2019-05-26T14:41:09.491Z,96997.55
2019-05-26T14:43:38.985Z,96995.21
2019-05-26T14:46:08.661Z,96998.33
2019-05-26T14:48:38.177Z,96994.48
2019-05-26T14:51:07.700Z,96994.93
2019-05-26T14:53:37.293Z,96994.08
2019-05-26T14:56:06.816Z,96994.37
2019-05-26T14:58:36.466Z,96998.36
2019-05-26T15:01:06.069Z,96993.08
2019-05-26T15:03:35.670Z,96994.56
2019-05-26T15:06:06.314Z,96992.72
2019-05-26T15:08:36.020Z,96983.50
2019-05-26T15:11:05.705Z,96974.80
2019-05-26T15:13:35.331Z,96976.13
2019-05-26T15:16:09.722Z,96980.03
2019-05-26T15:18:36.255Z,96974.84
2019-05-26T15:21:05.756Z,96970.55
2019-05-26T15:23:35.375Z,96977.56
2019-05-26T15:26:05.608Z,96976.33
2019-05-26T15:28:35.559Z,96967.98
2019-05-26T15:31:05.135Z,96967.10
2019-05-26T15:33:34.665Z,96977.71
2019-05-26T15:36:04.227Z,96976.48
2019-05-26T15:38:42.903Z,96971.27
2019-05-26T15:41:06.543Z,96966.34
2019-05-26T15:43:36.073Z,96972.45
2019-05-26T15:46:05.717Z,96967.10
2019-05-26T15:48:35.349Z,96962.53
2019-05-26T15:51:05.287Z,96960.45
2019-05-26T15:53:34.784Z,96959.69
2019-05-26T15:56:04.447Z,96963.87
2019-05-26T15:58:34.008Z,96967.28
2019-05-26T16:01:03.493Z,96967.20
2019-05-26T16:03:33.020Z,96963.14
2019-05-26T16:06:02.516Z,96955.05
2019-05-26T16:08:32.018Z,96952.19
2019-05-26T16:11:01.549Z,96956.22
2019-05-26T16:13:31.034Z,96950.81
2019-05-26T16:16:00.537Z,96948.88
2019-05-26T16:18:30.063Z,96943.13
2019-05-26T16:21:03.335Z,96941.95
2019-05-26T16:23:30.850Z,96935.15
2019-05-26T16:26:00.545Z,96939.42
2019-05-26T16:28:30.074Z,96934.80
2019-05-26T16:30:59.577Z,96941.80
2019-05-26T16:33:29.188Z,96940.61
2019-05-26T16:35:58.774Z,96940.91
2019-05-26T16:38:28.609Z,96940.97
2019-05-26T16:40:58.314Z,96942.24
2019-05-26T16:43:28.519Z,96944.53
2019-05-26T16:45:58.242Z,96943.32
2019-05-26T16:48:27.819Z,96942.48
2019-05-26T16:50:57.458Z,96935.67
2019-05-26T16:53:26.969Z,96941.59
2019-05-26T16:55:56.474Z,96925.34
2019-05-26T16:58:26.421Z,96934.08
2019-05-26T17:00:56.422Z,96933.14
2019-05-26T17:03:26.022Z,96929.52
2019-05-26T17:06:07.494Z,96914.37
2019-05-26T17:08:26.881Z,96913.02
2019-05-26T17:10:56.406Z,96913.02
2019-05-26T17:13:25.925Z,96911.42
2019-05-26T17:15:55.521Z,96917.41
2019-05-26T17:18:25.079Z,96909.55
2019-05-26T17:20:54.600Z,96907.78
2019-05-26T17:23:24.182Z,96915.13
2019-05-26T17:25:53.675Z,96899.98
2019-05-26T17:28:23.260Z,96902.62
2019-05-26T17:30:52.746Z,96912.73
2019-05-26T17:33:22.268Z,96918.18
2019-05-26T17:35:51.763Z,96912.54
2019-05-26T17:38:21.282Z,96912.54
2019-05-26T17:40:50.916Z,96903.01
2019-05-26T17:43:20.444Z,96903.01
2019-05-26T17:45:49.974Z,96905.44
2019-05-26T17:48:19.486Z,96902.56
2019-05-26T17:50:49.093Z,96897.55
2019-05-26T17:53:18.708Z,96897.55
2019-05-26T17:55:48.216Z,96897.84
2019-05-26T17:58:17.775Z,96894.05
2019-05-26T18:00:47.297Z,96896.75
2019-05-26T18:03:16.921Z,96903.43
2019-05-26T18:05:46.508Z,96898.88
2019-05-26T18:08:16.038Z,96894.63
2019-05-26T18:10:45.628Z,96892.26
2019-05-26T18:13:15.163Z,96889.21
2019-05-26T18:15:44.790Z,96883.61
2019-05-26T18:18:14.487Z,96882.48
2019-05-26T18:20:44.044Z,96875.55
2019-05-26T18:23:13.626Z,96884.01
2019-05-26T18:25:43.194Z,96881.69
2019-05-26T18:28:12.764Z,96882.09
2019-05-26T18:30:42.355Z,96873.52
2019-05-26T18:33:11.871Z,96875.00
2019-05-26T18:35:41.451Z,96872.06
2019-05-26T18:38:11.029Z,96869.88
2019-05-26T18:40:41.399Z,96866.86
2019-05-26T18:43:10.939Z,96872.19
2019-05-26T18:45:40.529Z,96863.27
2019-05-26T18:48:10.050Z,96871.30
2019-05-26T18:50:39.660Z,96871.13
2019-05-26T18:53:09.171Z,96873.77
2019-05-26T18:55:38.797Z,96865.70
2019-05-26T18:58:08.340Z,96874.72
2019-05-26T19:00:37.928Z,96871.36
2019-05-26T19:03:07.540Z,96875.55
2019-05-26T19:05:38.503Z,96876.98
2019-05-26T19:08:08.253Z,96872.88
2019-05-26T19:10:37.761Z,96870.73
2019-05-26T19:13:10.579Z,96871.80
2019-05-26T19:15:38.583Z,96872.52
2019-05-26T19:18:19.339Z,96875.73
2019-05-26T19:20:39.399Z,96884.00
2019-05-26T19:23:08.883Z,96876.38
2019-05-26T19:25:38.551Z,96877.97
2019-05-26T19:28:08.077Z,96874.67
2019-05-26T19:30:37.668Z,96878.09
2019-05-26T19:33:07.272Z,96882.63
2019-05-26T19:35:36.992Z,96871.50
2019-05-26T19:38:06.578Z,96870.34
2019-05-26T19:40:36.113Z,96882.91
2019-05-26T19:43:05.714Z,96881.46
2019-05-26T19:45:35.236Z,96883.00
2019-05-26T19:48:04.814Z,96893.09
2019-05-26T19:50:34.378Z,96893.80
2019-05-26T19:53:03.880Z,96890.21
2019-05-26T19:55:33.477Z,96894.51
2019-05-26T19:58:03.023Z,96890.44
2019-05-26T20:00:32.596Z,96896.80
2019-05-26T20:03:02.118Z,96901.63
2019-05-26T20:05:31.959Z,96892.23
2019-05-26T20:08:01.475Z,96895.20
2019-05-26T20:10:31.031Z,96891.47
2019-05-26T20:13:00.508Z,96891.33
2019-05-26T20:15:29.904Z,96889.13
2019-05-26T20:17:59.351Z,96893.22
2019-05-26T20:20:28.723Z,96894.76
2019-05-26T20:23:01.954Z,96899.80
2019-05-26T20:25:31.477Z,96905.11
2019-05-26T20:28:00.854Z,96898.94
2019-05-26T20:30:30.231Z,96900.23
2019-05-26T20:32:59.735Z,96899.61
2019-05-26T20:35:29.091Z,96897.40
2019-05-26T20:37:58.559Z,96902.14
2019-05-26T20:40:27.953Z,96894.59
2019-05-26T20:42:57.322Z,96897.02
2019-05-26T20:45:26.749Z,96895.85
2019-05-26T20:47:56.129Z,96896.75
2019-05-26T20:50:29.623Z,96898.86
2019-05-26T20:52:56.795Z,96886.39
2019-05-26T20:55:26.177Z,96887.32
2019-05-26T20:57:55.521Z,96893.36
2019-05-26T21:00:25.021Z,96888.98
2019-05-26T21:02:54.522Z,96889.55
2019-05-26T21:05:24.019Z,96882.11
2019-05-26T21:07:53.429Z,96892.61
2019-05-26T21:10:22.787Z,96887.90
2019-05-26T21:12:52.221Z,96894.25
2019-05-26T21:15:21.730Z,96898.37
2019-05-26T21:17:51.123Z,96886.64
2019-05-26T21:20:21.132Z,96901.23
2019-05-26T21:22:50.529Z,96902.03
2019-05-26T21:25:19.884Z,96904.94
2019-05-26T21:27:49.247Z,96898.52
2019-05-26T21:30:19.667Z,96904.09
2019-05-26T21:32:49.016Z,96908.66
2019-05-26T21:35:18.435Z,96906.66
2019-05-26T21:37:47.819Z,96909.98
2019-05-26T21:40:17.344Z,96909.00
2019-05-26T21:42:46.798Z,96906.02
2019-05-26T21:45:17.142Z,96904.59
2019-05-26T21:47:46.538Z,96906.67
2019-05-26T21:50:17.348Z,96908.68
2019-05-26T21:52:46.772Z,96907.88
2019-05-26T21:55:16.438Z,96900.63
2019-05-26T21:57:45.807Z,96902.98
2019-05-26T22:00:18.805Z,96910.52
2019-05-26T22:02:48.309Z,96915.05
2019-05-26T22:05:17.870Z,96906.27
2019-05-26T22:07:47.250Z,96914.34
2019-05-26T22:10:16.895Z,96898.19
2019-05-26T22:12:46.338Z,96907.96
2019-05-26T22:15:15.884Z,96906.50
2019-05-26T22:17:45.379Z,96904.17
2019-05-26T22:20:14.877Z,96897.69
2019-05-26T22:22:44.238Z,96901.48
2019-05-26T22:25:13.674Z,96898.79
2019-05-26T22:27:43.049Z,96888.34
2019-05-26T22:30:12.685Z,96888.79
2019-05-26T22:32:42.078Z,96884.41
2019-05-26T22:35:11.715Z,96889.17
2019-05-26T22:37:41.100Z,96889.30
2019-05-26T22:40:10.733Z,96888.59
2019-05-26T22:42:40.141Z,96885.55
2019-05-26T22:45:09.857Z,96877.66
2019-05-26T22:47:39.347Z,96879.00
2019-05-26T22:50:09.284Z,96873.11
2019-05-26T22:52:38.759Z,96879.02
2019-05-26T22:55:09.334Z,96867.63
2019-05-26T22:57:38.725Z,96874.83
2019-05-26T23:00:08.876Z,96866.85
2019-05-26T23:02:38.231Z,96862.28
2019-05-26T23:05:07.898Z,96861.13
2019-05-26T23:07:37.264Z,96864.44
2019-05-26T23:10:07.653Z,96866.05
2019-05-26T23:12:37.050Z,96870.92
2019-05-26T23:15:06.675Z,96873.22
2019-05-26T23:17:36.066Z,96865.13
2019-05-26T23:20:06.400Z,96861.80
2019-05-26T23:22:35.864Z,96857.84
2019-05-26T23:25:05.798Z,96853.14
2019-05-26T23:27:35.239Z,96859.73
2019-05-26T23:30:16.073Z,96852.69
2019-05-26T23:32:45.542Z,96857.78
2019-05-26T23:35:15.227Z,96850.79
2019-05-26T23:37:44.609Z,96853.90
2019-05-26T23:40:14.035Z,96850.59
2019-05-26T23:42:43.470Z,96855.68
2019-05-26T23:45:13.006Z,96843.16
2019-05-26T23:47:42.487Z,96840.81
2019-05-26T23:50:12.094Z,96841.51
2019-05-26T23:52:41.475Z,96841.32
2019-05-26T23:55:11.178Z,96840.17
2019-05-26T23:57:40.639Z,96832.45
